Flight Track Log - Related Links

Times and Time Zones

All times are in EDT time to prevent confusion due to time zone crossing. See the UCA4771 flight status page for this flight to view local times or setup timezone preferences in your user account.

Time Position Orientation Groundspeed Altitude Reporting Facility
EDT Latitude Longitude Course Direction KTS MPH feet Rate Location/Type
Sat 08:46:00 AM 41.2885 -74.6303 330° Northwest  Level Estimated
Sat 08:47:00 AM 41.3381 -74.6692 330° Northwest  Level Estimated
Sat 08:48:00 AM 41.3877 -74.7081 330° Northwest  Level Estimated
Sat 08:49:00 AM 41.4372 -74.7471 329° Northwest  Level Estimated
Sat 08:50:00 AM 41.4868 -74.7861 329° Northwest  Level Estimated
Sat 08:51:00 AM 41.5363 -74.8252 329° Northwest  Level Estimated
Sat 08:52:00 AM 41.5858 -74.8643 329° Northwest  Level Estimated
Sat 08:53:00 AM 41.6354 -74.9036 329° Northwest  Level Estimated
Sat 08:54:00 AM 41.6848 -74.9428 329° Northwest  Level Estimated
Sat 08:55:00 AM 41.7343 -74.9822 329° Northwest  Level Estimated
Sat 08:56:00 AM 41.7838 -75.0216 329° Northwest  Level Estimated
Sat 08:57:00 AM 41.8332 -75.0610 329° Northwest  Level Estimated
Sat 08:58:00 AM 41.8827 -75.1005 329° Northwest  Level Estimated
Sat 08:59:00 AM 41.9321 -75.1401 329° Northwest  Level Estimated
Sat 09:00:00 AM 41.9815 -75.1797 329° Northwest  Level Estimated
Sat 09:01:00 AM 42.0309 -75.2194 329° Northwest  Level Estimated
Sat 09:02:00 AM 42.0803 -75.2592 329° Northwest  Level Estimated
Sat 09:03:00 AM 42.1297 -75.2990 329° Northwest  Level Estimated
Sat 09:04:00 AM 42.1790 -75.3389 329° Northwest  Level Estimated
Sat 09:05:00 AM 42.2284 -75.3789 329° Northwest  Level Estimated
Sat 09:06:00 AM 42.2777 -75.4189 329° Northwest  Level Estimated
Sat 09:07:00 AM 42.3270 -75.4589 329° Northwest  Level Estimated
Sat 09:08:00 AM 42.3763 -75.4991 329° Northwest  Level Estimated
Sat 09:09:00 AM 42.4256 -75.5393 329° Northwest  Level Estimated
Sat 09:10:00 AM 42.4749 -75.5795 329° Northwest  Level Estimated
Sat 09:11:00 AM 42.5241 -75.6198 329° Northwest  Level Estimated
Sat 09:12:00 AM 42.5734 -75.6602 329° Northwest  Level Estimated
Sat 09:13:00 AM 42.6226 -75.7007 329° Northwest  Level Estimated
Sat 09:14:00 AM 42.6718 -75.7412 329° Northwest  Level Estimated
Sat 09:15:00 AM 42.7210 -75.7818 329° Northwest  Level Estimated
Sat 09:16:00 AM 42.7702 -75.8224 329° Northwest  Level Estimated
Sat 09:17:00 AM 42.8194 -75.8631 329° Northwest  Level Estimated
Sat 09:18:00 AM 42.8685 -75.9039 329° Northwest  Level Estimated
Sat 09:19:00 AM 42.9177 -75.9447 329° Northwest  Level Estimated
Sat 09:20:00 AM 42.9668 -75.9856 329° Northwest  Level Estimated
Sat 09:21:00 AM 43.0159 -76.0266 329° Northwest  Level Estimated
Sat 09:22:00 AM 43.0650 -76.0676 329° Northwest  Level Estimated
Sat 09:23:00 AM 43.1112 -76.1063 329° Northwest  Level Estimated
Sat 09:24:00 AM 43.1112 -76.1063 36° Northeast  Level Estimated
Sat 09:25:00 AM 43.1112 -76.1063 36° Northeast  Level Estimated
Sat 09:26:00 AM 43.1112 -76.1063 36° Northeast  Level Estimated
Sat 09:27:00 AM 43.1112 -76.1063 36° Northeast  Level Estimated
Sat 09:28:00 AM 43.1112 -76.1063 36° Northeast  Level Estimated
Sat 09:29:00 AM 43.1112 -76.1063 36° Northeast  Level Estimated
Sat 09:30:00 AM 43.1112 -76.1063 36° Northeast  Level Estimated
Sat 09:31:00 AM 43.1112 -76.1063 36° Northeast  Level Estimated
Sat 09:32:00 AM 43.1112 -76.1063 36° Northeast  Level Estimated
Sat 09:33:00 AM 43.1112 -76.1063 36° Northeast  Level Estimated
Sat 09:34:00 AM 43.1112 -76.1063 36° Northeast  Level Estimated
Sat 09:35:00 AM 43.1112 -76.1063 36° Northeast  Level Estimated
Sat 09:36:00 AM 43.1112 -76.1063 36° Northeast  Level Estimated
Sat 09:37:00 AM 43.1112 -76.1063 36° Northeast  Level Estimated
Sat 09:38:00 AM 43.1112 -76.1063 36° Northeast  Level Estimated
Sat 09:39:00 AM 43.1112 -76.1063 36° Northeast  Level Estimated

Login

Don't have an account? Register now (free) for customized features, flight alerts, and more!